createdAt,value
2023-02-01T00:00:19.792Z,91.60
2023-02-01T00:02:47.984Z,91.60
2023-02-01T00:05:16.096Z,91.70
2023-02-01T00:07:48.590Z,91.80
2023-02-01T00:10:16.674Z,91.80
2023-02-01T00:12:44.783Z,91.80
2023-02-01T00:15:12.867Z,91.90
2023-02-01T00:17:40.626Z,91.80
2023-02-01T00:20:09.639Z,91.80
2023-02-01T00:22:37.364Z,91.80
2023-02-01T00:25:07.694Z,91.80
2023-02-01T00:27:35.668Z,91.80
2023-02-01T00:30:04.344Z,92.10
2023-02-01T00:32:33.189Z,91.80
2023-02-01T00:35:01.191Z,91.80
2023-02-01T00:37:29.082Z,91.80
2023-02-01T00:39:57.089Z,91.80
2023-02-01T00:42:26.654Z,91.80
2023-02-01T00:44:54.412Z,91.90
2023-02-01T00:47:22.165Z,91.90
2023-02-01T00:49:49.877Z,91.80
2023-02-01T00:52:17.622Z,91.80
2023-02-01T00:54:45.401Z,91.80
2023-02-01T00:57:13.182Z,91.80
2023-02-01T00:59:42.327Z,91.90
2023-02-01T01:02:11.777Z,91.90
2023-02-01T01:04:39.857Z,91.90
2023-02-01T01:07:07.686Z,91.90
2023-02-01T01:09:36.579Z,92.20
2023-02-01T01:12:04.576Z,91.90
2023-02-01T01:14:32.502Z,91.90
2023-02-01T01:17:01.564Z,91.90
2023-02-01T01:19:29.401Z,91.90
2023-02-01T01:21:57.258Z,91.90
2023-02-01T01:24:24.965Z,91.90
2023-02-01T01:26:52.835Z,91.90
2023-02-01T01:29:20.650Z,91.90
2023-02-01T01:31:48.491Z,91.90
2023-02-01T01:34:17.677Z,91.90
2023-02-01T01:36:45.403Z,91.90
2023-02-01T01:39:13.115Z,91.90
2023-02-01T01:41:40.905Z,92.00
2023-02-01T01:44:24.158Z,91.90
2023-02-01T01:46:51.925Z,91.90
2023-02-01T01:49:25.904Z,91.90
2023-02-01T01:51:57.230Z,92.00
2023-02-01T01:54:29.327Z,91.90
2023-02-01T01:57:00.510Z,91.90
2023-02-01T01:59:29.044Z,91.90
2023-02-01T02:01:57.527Z,91.90
2023-02-01T02:04:27.424Z,91.90
2023-02-01T02:07:01.346Z,91.90
2023-02-01T02:09:29.291Z,91.90
2023-02-01T02:11:57.050Z,91.90
2023-02-01T02:14:26.875Z,91.90
2023-02-01T02:17:04.543Z,91.90
2023-02-01T02:20:20.727Z,91.90
2023-02-01T02:23:12.573Z,91.90
2023-02-01T02:26:02.266Z,91.90
2023-02-01T02:29:11.677Z,91.90
2023-02-01T02:32:05.699Z,91.90
2023-02-01T02:34:39.791Z,92.00
2023-02-01T02:37:18.515Z,91.90
2023-02-01T02:39:52.934Z,92.00
2023-02-01T02:42:46.818Z,91.90
2023-02-01T02:45:38.705Z,92.00
2023-02-01T02:48:13.522Z,91.90
2023-02-01T02:51:04.299Z,91.90
2023-02-01T02:53:58.496Z,91.90
2023-02-01T02:56:45.702Z,91.90
2023-02-01T02:59:35.479Z,91.90
2023-02-01T03:02:20.870Z,91.90
2023-02-01T03:04:48.927Z,92.00
2023-02-01T03:07:58.711Z,91.90
2023-02-01T03:10:34.735Z,92.00
2023-02-01T03:13:04.486Z,92.00
2023-02-01T03:15:37.034Z,92.00
2023-02-01T03:18:11.188Z,91.90
2023-02-01T03:20:42.176Z,91.90
2023-02-01T03:23:13.898Z,91.80
2023-02-01T03:25:42.600Z,91.80
2023-02-01T03:28:12.089Z,91.70
2023-02-01T03:30:42.990Z,91.70
2023-02-01T03:33:23.039Z,91.80
2023-02-01T03:36:02.933Z,91.80
2023-02-01T03:38:35.447Z,91.80
2023-02-01T03:41:12.811Z,91.80
2023-02-01T03:43:49.603Z,91.80
2023-02-01T03:46:23.045Z,92.20
2023-02-01T03:48:53.239Z,91.90
2023-02-01T03:51:23.330Z,91.90
2023-02-01T03:53:55.227Z,91.80
2023-02-01T03:56:24.826Z,91.80
2023-02-01T03:59:00.404Z,91.80
2023-02-01T04:01:30.285Z,91.80
2023-02-01T04:03:58.859Z,91.80
2023-02-01T04:06:27.065Z,91.80
2023-02-01T04:08:56.312Z,91.90
2023-02-01T04:11:24.362Z,91.90
2023-02-01T04:13:52.182Z,91.90
2023-02-01T04:16:20.049Z,92.00
2023-02-01T04:18:47.890Z,92.00
2023-02-01T04:21:15.615Z,92.00
2023-02-01T04:23:43.532Z,92.00
2023-02-01T04:26:12.843Z,92.00
2023-02-01T04:28:40.820Z,92.00
2023-02-01T04:31:08.697Z,92.00
2023-02-01T04:33:36.597Z,92.10
2023-02-01T04:36:04.586Z,92.10
2023-02-01T04:38:33.192Z,92.10
2023-02-01T04:41:01.457Z,92.00
2023-02-01T04:43:30.669Z,92.00
2023-02-01T04:45:58.465Z,92.30
2023-02-01T04:48:26.349Z,92.00
2023-02-01T04:50:54.251Z,92.30
2023-02-01T04:53:22.234Z,91.90
2023-02-01T04:55:51.185Z,91.90
2023-02-01T04:58:19.100Z,91.90
2023-02-01T05:00:48.288Z,92.30
2023-02-01T05:03:16.258Z,91.90
2023-02-01T05:05:44.376Z,91.90
2023-02-01T05:08:12.141Z,91.90
2023-02-01T05:10:40.169Z,91.90
2023-02-01T05:13:25.595Z,91.90
2023-02-01T05:15:54.834Z,91.80
2023-02-01T05:18:22.851Z,91.70
2023-02-01T05:20:50.835Z,91.70
2023-02-01T05:23:18.683Z,91.70
2023-02-01T05:25:46.633Z,91.70
2023-02-01T05:28:14.574Z,91.80
2023-02-01T05:30:42.573Z,91.80
2023-02-01T05:33:11.859Z,91.90
2023-02-01T05:35:39.702Z,92.00
2023-02-01T05:38:07.542Z,92.10
2023-02-01T05:40:35.690Z,92.10
2023-02-01T05:43:03.812Z,92.10
2023-02-01T05:45:31.767Z,92.10
2023-02-01T05:47:59.680Z,92.10
2023-02-01T05:50:28.968Z,92.10
2023-02-01T05:52:56.763Z,92.10
2023-02-01T05:55:24.687Z,92.10
2023-02-01T05:57:52.484Z,92.10
2023-02-01T06:00:22.473Z,92.10
2023-02-01T06:02:50.640Z,92.20
2023-02-01T06:05:18.676Z,92.10
2023-02-01T06:07:47.885Z,92.10
2023-02-01T06:10:15.705Z,92.10
2023-02-01T06:12:43.685Z,92.10
2023-02-01T06:15:12.315Z,92.10
2023-02-01T06:17:42.377Z,92.10
2023-02-01T06:20:12.162Z,92.10
2023-02-01T06:22:40.255Z,92.10
2023-02-01T06:25:11.659Z,92.10
2023-02-01T06:27:39.698Z,92.00
2023-02-01T06:30:09.352Z,92.00
2023-02-01T06:32:37.213Z,92.00
2023-02-01T06:35:06.488Z,91.90
2023-02-01T06:37:34.262Z,91.90
2023-02-01T06:40:02.368Z,91.90
2023-02-01T06:42:32.161Z,91.90
2023-02-01T06:45:00.004Z,91.90
2023-02-01T06:47:33.138Z,92.00
2023-02-01T06:50:01.089Z,92.00
2023-02-01T06:52:28.987Z,92.00
2023-02-01T06:54:56.939Z,92.00
2023-02-01T06:57:24.786Z,92.00
2023-02-01T06:59:54.356Z,92.00
2023-02-01T07:02:22.158Z,92.00
2023-02-01T07:04:50.075Z,92.00
2023-02-01T07:07:18.088Z,92.00
2023-02-01T07:09:46.022Z,91.90
2023-02-01T07:12:14.291Z,91.90
2023-02-01T07:14:42.025Z,91.90
2023-02-01T07:17:11.280Z,91.80
2023-02-01T07:19:39.348Z,91.70
2023-02-01T07:22:07.234Z,91.70
2023-02-01T07:24:36.063Z,91.70
2023-02-01T07:27:03.857Z,91.70
2023-02-01T07:29:31.656Z,91.80
2023-02-01T07:31:59.474Z,91.90
2023-02-01T07:34:29.024Z,91.90
2023-02-01T07:36:56.921Z,91.90
2023-02-01T07:39:24.822Z,91.90
2023-02-01T07:41:53.651Z,91.90
2023-02-01T07:44:26.243Z,91.80
2023-02-01T07:46:54.068Z,91.90
2023-02-01T07:49:21.926Z,91.90
2023-02-01T07:51:51.147Z,92.00
2023-02-01T07:54:19.084Z,92.00
2023-02-01T07:56:46.896Z,92.10
2023-02-01T07:59:14.733Z,92.00
2023-02-01T08:01:41.497Z,92.00
2023-02-01T08:04:13.427Z,92.00
2023-02-01T08:06:42.040Z,92.00
2023-02-01T08:09:11.988Z,91.90
2023-02-01T08:11:39.935Z,91.90
2023-02-01T08:14:07.977Z,91.80
2023-02-01T08:16:38.412Z,91.80
2023-02-01T08:19:06.510Z,91.80
2023-02-01T08:21:38.366Z,91.90
2023-02-01T08:24:07.749Z,92.00
2023-02-01T08:26:37.273Z,92.00
2023-02-01T08:29:07.704Z,92.00
2023-02-01T08:31:35.923Z,92.10
2023-02-01T08:34:05.571Z,92.20
2023-02-01T08:36:33.713Z,92.20
2023-02-01T08:39:02.133Z,92.30
2023-02-01T08:41:32.021Z,92.30
2023-02-01T08:44:01.253Z,92.20
2023-02-01T08:46:29.717Z,92.10
2023-02-01T08:48:57.522Z,92.10
2023-02-01T08:51:25.959Z,92.10
2023-02-01T08:53:54.213Z,92.20
2023-02-01T08:56:22.508Z,92.20
2023-02-01T08:58:50.352Z,92.30
2023-02-01T09:01:19.624Z,92.10
2023-02-01T09:03:47.902Z,92.10
2023-02-01T09:06:17.122Z,92.20
2023-02-01T09:08:46.256Z,92.30
2023-02-01T09:11:16.028Z,92.20
2023-02-01T09:13:44.289Z,92.20
2023-02-01T09:16:12.550Z,92.30
2023-02-01T09:18:50.711Z,92.30
2023-02-01T09:21:24.181Z,92.30
2023-02-01T09:23:53.204Z,92.20
2023-02-01T09:26:26.479Z,92.20
2023-02-01T09:28:59.417Z,92.30
2023-02-01T09:31:27.665Z,92.40
2023-02-01T09:33:57.162Z,92.50
2023-02-01T09:36:25.327Z,92.50
2023-02-01T09:38:53.991Z,92.50
2023-02-01T09:41:34.498Z,92.50
2023-02-01T09:44:09.385Z,92.50
2023-02-01T09:46:37.831Z,92.40
2023-02-01T09:49:12.347Z,92.40
2023-02-01T09:51:44.733Z,92.30
2023-02-01T09:54:17.761Z,92.40
2023-02-01T09:56:50.538Z,92.40
2023-02-01T09:59:29.278Z,92.40
2023-02-01T10:01:58.264Z,92.40
2023-02-01T10:04:28.008Z,92.40
2023-02-01T10:07:07.112Z,92.40
2023-02-01T10:09:56.798Z,92.30
2023-02-01T10:12:53.291Z,92.30
2023-02-01T10:15:35.583Z,92.70
2023-02-01T10:18:19.814Z,92.40
2023-02-01T10:20:57.866Z,92.40
2023-02-01T10:23:47.545Z,92.40
2023-02-01T10:26:20.994Z,92.30
2023-02-01T10:28:52.378Z,92.30
2023-02-01T10:31:22.939Z,92.20
2023-02-01T10:33:52.354Z,92.30
2023-02-01T10:36:25.186Z,92.30
2023-02-01T10:38:53.135Z,92.20
2023-02-01T10:41:33.289Z,92.20
2023-02-01T10:44:05.595Z,92.30
2023-02-01T10:46:35.590Z,92.20
2023-02-01T10:49:09.292Z,92.20
2023-02-01T10:51:45.280Z,92.40
2023-02-01T10:54:17.553Z,92.40
2023-02-01T10:56:47.401Z,92.50
2023-02-01T10:59:19.618Z,92.50
2023-02-01T11:01:49.521Z,92.40
2023-02-01T11:04:19.784Z,92.40
2023-02-01T11:06:51.307Z,92.30
2023-02-01T11:09:22.659Z,92.30
2023-02-01T11:11:59.695Z,92.30
2023-02-01T11:14:39.186Z,92.30
2023-02-01T11:17:25.836Z,92.40
2023-02-01T11:20:00.128Z,92.40
2023-02-01T11:22:30.604Z,92.50
2023-02-01T11:24:59.132Z,92.50
2023-02-01T11:27:28.205Z,92.50
2023-02-01T11:30:00.008Z,92.50
2023-02-01T11:32:29.592Z,92.50
2023-02-01T11:35:01.195Z,92.40
2023-02-01T11:37:33.484Z,92.40
2023-02-01T11:40:03.118Z,92.40
2023-02-01T11:42:31.476Z,92.40
2023-02-01T11:45:20.309Z,92.40
2023-02-01T11:47:48.549Z,92.40
2023-02-01T11:50:18.656Z,92.40
2023-02-01T11:53:00.419Z,92.40
2023-02-01T11:55:55.337Z,92.40
2023-02-01T11:59:04.843Z,92.30
2023-02-01T12:01:44.158Z,92.20
2023-02-01T12:04:54.624Z,92.20
2023-02-01T12:07:27.541Z,92.30
2023-02-01T12:10:23.248Z,92.40
2023-02-01T12:12:58.846Z,92.30
2023-02-01T12:15:48.374Z,92.40
2023-02-01T12:18:41.039Z,92.40
2023-02-01T12:21:30.031Z,92.50
2023-02-01T12:24:21.741Z,92.40
2023-02-01T12:27:02.622Z,92.40
2023-02-01T12:29:40.577Z,92.40
2023-02-01T12:32:29.955Z,92.30
2023-02-01T12:35:39.017Z,92.30
2023-02-01T12:38:23.709Z,92.30
2023-02-01T12:41:07.041Z,92.20
2023-02-01T12:43:44.634Z,92.20
2023-02-01T12:46:18.369Z,92.20
2023-02-01T12:48:56.417Z,92.20
2023-02-01T12:51:28.463Z,92.30
2023-02-01T12:54:01.017Z,92.30
2023-02-01T12:56:33.584Z,92.30
2023-02-01T12:59:06.530Z,92.30
2023-02-01T13:01:38.503Z,92.30
2023-02-01T13:04:14.158Z,92.30
2023-02-01T13:06:46.785Z,92.30
2023-02-01T13:09:24.954Z,92.40
2023-02-01T13:11:56.155Z,92.40
2023-02-01T13:14:34.830Z,92.40
2023-02-01T13:17:06.243Z,92.40
2023-02-01T13:19:47.251Z,92.50
2023-02-01T13:22:19.927Z,92.60
2023-02-01T13:24:52.485Z,92.60
2023-02-01T13:27:20.530Z,92.60
2023-02-01T13:29:56.831Z,92.60
2023-02-01T13:33:52.495Z,92.50
2023-02-01T13:36:03.243Z,92.40
2023-02-01T13:38:51.935Z,92.40
2023-02-01T13:41:29.508Z,92.40
2023-02-01T13:44:01.447Z,92.40
2023-02-01T13:46:32.581Z,92.40
2023-02-01T13:49:03.719Z,92.40
2023-02-01T13:51:37.634Z,92.40
2023-02-01T13:54:06.861Z,92.40
2023-02-01T13:56:43.246Z,92.40
2023-02-01T13:59:50.143Z,92.40
2023-02-01T14:03:03.461Z,92.40
2023-02-01T14:05:58.436Z,92.60
2023-02-01T14:08:42.845Z,92.60
2023-02-01T14:11:35.848Z,92.60
2023-02-01T14:14:48.149Z,92.60
2023-02-01T14:17:37.194Z,92.60
2023-02-01T14:20:41.856Z,92.50
2023-02-01T14:23:15.602Z,92.50
2023-02-01T14:25:44.630Z,92.50
2023-02-01T14:28:20.457Z,92.50
2023-02-01T14:30:50.580Z,92.50
2023-02-01T14:33:25.180Z,92.50
2023-02-01T14:36:08.685Z,92.50
2023-02-01T14:38:39.210Z,92.50
2023-02-01T14:41:34.527Z,92.30
2023-02-01T14:44:29.130Z,92.20
2023-02-01T14:47:36.071Z,92.10
2023-02-01T14:50:19.391Z,92.00
2023-02-01T14:52:52.834Z,92.00
2023-02-01T14:55:29.228Z,92.10
2023-02-01T14:58:01.636Z,92.10
2023-02-01T15:00:31.741Z,92.20
2023-02-01T15:03:37.767Z,92.20
2023-02-01T15:06:07.127Z,92.20
2023-02-01T15:08:39.773Z,92.20
2023-02-01T15:11:15.672Z,92.20
2023-02-01T15:13:52.945Z,92.20
2023-02-01T15:16:23.781Z,92.20
2023-02-01T15:18:52.298Z,92.20
2023-02-01T15:21:26.323Z,92.20
2023-02-01T15:24:16.822Z,92.20
2023-02-01T15:26:45.184Z,92.20
2023-02-01T15:29:14.775Z,92.20
2023-02-01T15:31:46.656Z,92.20
2023-02-01T15:34:15.164Z,92.10
2023-02-01T15:36:53.541Z,92.10
2023-02-01T15:39:35.600Z,92.00
2023-02-01T15:42:16.594Z,92.00
2023-02-01T15:44:47.543Z,92.00
2023-02-01T15:47:18.322Z,92.00
2023-02-01T15:49:50.389Z,92.00
2023-02-01T15:52:26.425Z,91.90
2023-02-01T15:54:58.806Z,92.00
2023-02-01T15:57:32.418Z,92.10
2023-02-01T16:00:06.604Z,92.10
2023-02-01T16:02:38.948Z,92.10
2023-02-01T16:05:27.054Z,92.10
2023-02-01T16:08:04.821Z,92.10
2023-02-01T16:10:39.913Z,92.20
2023-02-01T16:13:08.122Z,92.20
2023-02-01T16:15:36.159Z,92.20
2023-02-01T16:18:04.368Z,92.20
2023-02-01T16:20:34.055Z,92.20
2023-02-01T16:23:06.391Z,92.10
2023-02-01T16:25:35.834Z,92.10
2023-02-01T16:28:05.505Z,92.20
2023-02-01T16:30:34.428Z,92.20
2023-02-01T16:33:06.299Z,92.30
2023-02-01T16:35:37.922Z,92.30
2023-02-01T16:38:09.802Z,92.30
2023-02-01T16:40:40.752Z,92.30
2023-02-01T16:43:17.712Z,92.30
2023-02-01T16:45:48.801Z,92.30
2023-02-01T16:48:23.229Z,92.20
2023-02-01T16:50:53.823Z,92.20
2023-02-01T16:53:23.123Z,92.20
2023-02-01T16:55:53.425Z,92.20
2023-02-01T16:58:23.437Z,92.20
2023-02-01T17:00:53.221Z,92.20
2023-02-01T17:03:25.588Z,92.10
2023-02-01T17:05:58.637Z,92.10
2023-02-01T17:08:33.848Z,92.20
2023-02-01T17:11:04.769Z,92.20
2023-02-01T17:13:33.144Z,92.10
2023-02-01T17:16:04.683Z,92.10
2023-02-01T17:18:36.124Z,92.10
2023-02-01T17:21:06.512Z,92.10
2023-02-01T17:23:34.707Z,92.10
2023-02-01T17:26:04.048Z,92.10
2023-02-01T17:28:31.891Z,92.10
2023-02-01T17:30:59.865Z,92.10
2023-02-01T17:33:34.094Z,92.10
2023-02-01T17:36:06.927Z,92.10
2023-02-01T17:38:36.303Z,92.10
2023-02-01T17:41:06.077Z,92.00
2023-02-01T17:43:34.582Z,92.00
2023-02-01T17:46:05.278Z,92.00
2023-02-01T17:48:33.294Z,92.00
2023-02-01T17:51:02.718Z,92.00
2023-02-01T17:53:31.543Z,92.00
2023-02-01T17:56:02.226Z,92.00
2023-02-01T17:58:33.733Z,92.00
2023-02-01T18:01:01.775Z,92.00
2023-02-01T18:03:32.998Z,92.00
2023-02-01T18:06:02.170Z,92.00
2023-02-01T18:08:34.215Z,92.00
2023-02-01T18:11:03.247Z,92.00
2023-02-01T18:13:34.164Z,92.00
2023-02-01T18:16:02.375Z,92.00
2023-02-01T18:18:31.234Z,91.90
2023-02-01T18:21:00.550Z,92.20
2023-02-01T18:23:28.384Z,91.90
2023-02-01T18:25:56.398Z,91.80
2023-02-01T18:28:24.440Z,91.80
2023-02-01T18:30:54.368Z,91.80
2023-02-01T18:33:22.823Z,91.80
2023-02-01T18:35:51.161Z,91.70
2023-02-01T18:38:19.275Z,91.70
2023-02-01T18:40:51.393Z,91.80
2023-02-01T18:43:19.671Z,91.90
2023-02-01T18:45:48.889Z,91.90
2023-02-01T18:48:22.124Z,91.90
2023-02-01T18:50:57.055Z,91.90
2023-02-01T18:53:27.460Z,91.80
2023-02-01T18:55:56.079Z,91.90
2023-02-01T18:58:26.966Z,92.00
2023-02-01T19:00:56.809Z,92.00
2023-02-01T19:03:27.084Z,92.00
2023-02-01T19:05:57.064Z,91.90
2023-02-01T19:08:26.347Z,91.80
2023-02-01T19:10:54.785Z,91.90
2023-02-01T19:13:24.595Z,91.90
2023-02-01T19:15:53.475Z,91.80
2023-02-01T19:18:21.488Z,91.90
2023-02-01T19:20:54.844Z,91.90
2023-02-01T19:23:23.124Z,91.80
2023-02-01T19:25:51.062Z,91.80
2023-02-01T19:28:19.249Z,91.80
2023-02-01T19:30:47.283Z,91.80
2023-02-01T19:33:15.487Z,91.80
2023-02-01T19:35:44.231Z,91.80
2023-02-01T19:38:14.792Z,91.80
2023-02-01T19:40:42.731Z,91.80
2023-02-01T19:43:10.561Z,91.90
2023-02-01T19:45:38.887Z,91.90
2023-02-01T19:48:08.438Z,92.00
2023-02-01T19:50:36.414Z,92.00
2023-02-01T19:53:04.565Z,91.90
2023-02-01T19:55:34.068Z,92.00
2023-02-01T19:58:05.350Z,91.90
2023-02-01T20:00:34.885Z,91.80
2023-02-01T20:03:03.399Z,91.70
2023-02-01T20:05:31.571Z,91.60
2023-02-01T20:08:00.977Z,91.60
2023-02-01T20:10:29.287Z,91.60
2023-02-01T20:12:58.656Z,91.90
2023-02-01T20:15:27.556Z,91.60
2023-02-01T20:17:55.709Z,91.60
2023-02-01T20:20:24.100Z,91.60
2023-02-01T20:22:53.153Z,91.70
2023-02-01T20:25:21.429Z,91.70
2023-02-01T20:27:51.897Z,91.70
2023-02-01T20:30:21.455Z,91.70
2023-02-01T20:32:50.740Z,91.70
2023-02-01T20:35:19.433Z,91.80
2023-02-01T20:37:48.828Z,91.80
2023-02-01T20:40:16.905Z,92.10
2023-02-01T20:42:44.759Z,91.80
2023-02-01T20:45:12.686Z,91.70
2023-02-01T20:47:43.418Z,91.60
2023-02-01T20:50:13.269Z,91.70
2023-02-01T20:52:41.092Z,91.70
2023-02-01T20:55:09.837Z,91.70
2023-02-01T20:57:37.803Z,91.70
2023-02-01T21:00:10.119Z,91.70
2023-02-01T21:02:37.970Z,91.70
2023-02-01T21:05:08.285Z,91.70
2023-02-01T21:07:36.900Z,91.70
2023-02-01T21:10:05.240Z,91.80
2023-02-01T21:12:33.095Z,91.60
2023-02-01T21:15:00.928Z,91.60
2023-02-01T21:17:31.332Z,91.60
2023-02-01T21:19:59.507Z,91.70
2023-02-01T21:22:28.832Z,91.70
2023-02-01T21:24:56.661Z,91.70
2023-02-01T21:27:24.798Z,91.70
2023-02-01T21:29:52.616Z,91.70
2023-02-01T21:32:20.877Z,91.70
2023-02-01T21:34:48.637Z,91.70
2023-02-01T21:37:16.463Z,91.70
2023-02-01T21:39:45.938Z,91.70
2023-02-01T21:42:17.528Z,91.80
2023-02-01T21:44:47.536Z,91.70
2023-02-01T21:47:17.392Z,91.70
2023-02-01T21:49:46.099Z,91.70
2023-02-01T21:52:15.253Z,91.70
2023-02-01T21:54:43.358Z,91.70
2023-02-01T21:57:13.122Z,91.80
2023-02-01T21:59:41.959Z,91.80
2023-02-01T22:02:17.202Z,91.70
2023-02-01T22:04:45.553Z,91.60
2023-02-01T22:07:13.562Z,91.70
2023-02-01T22:09:41.881Z,91.70
2023-02-01T22:12:13.479Z,91.80
2023-02-01T22:14:44.659Z,91.60
2023-02-01T22:17:13.429Z,91.60
2023-02-01T22:19:42.425Z,91.50
2023-02-01T22:22:11.624Z,91.50
2023-02-01T22:24:39.513Z,91.50
2023-02-01T22:27:13.594Z,91.60
2023-02-01T22:29:44.226Z,91.60
2023-02-01T22:32:13.836Z,91.80
2023-02-01T22:34:41.821Z,91.70
2023-02-01T22:37:11.145Z,91.70
2023-02-01T22:39:39.986Z,91.80
2023-02-01T22:42:07.869Z,91.80
2023-02-01T22:44:35.809Z,91.80
2023-02-01T22:47:05.111Z,91.80
2023-02-01T22:49:32.879Z,91.80
2023-02-01T22:52:00.697Z,91.80
2023-02-01T22:54:28.575Z,91.80
2023-02-01T22:56:56.383Z,91.90
2023-02-01T22:59:24.180Z,91.80
2023-02-01T23:01:52.151Z,91.80
2023-02-01T23:04:21.724Z,91.80
2023-02-01T23:06:50.784Z,91.80
2023-02-01T23:09:21.162Z,91.70
2023-02-01T23:11:49.961Z,91.70
2023-02-01T23:14:17.946Z,91.80
2023-02-01T23:16:46.811Z,91.70
2023-02-01T23:19:15.264Z,91.70
2023-02-01T23:21:44.583Z,91.70
2023-02-01T23:24:12.869Z,91.70
2023-02-01T23:26:42.363Z,91.80
2023-02-01T23:29:16.571Z,91.80
2023-02-01T23:31:44.371Z,91.70
2023-02-01T23:34:12.655Z,92.00
2023-02-01T23:36:40.566Z,91.70
2023-02-01T23:39:09.905Z,91.60
2023-02-01T23:41:37.864Z,91.60
2023-02-01T23:44:06.170Z,91.70
2023-02-01T23:46:36.305Z,91.80
2023-02-01T23:49:07.373Z,92.10
2023-02-01T23:51:35.307Z,91.90
2023-02-01T23:54:03.985Z,91.90
2023-02-01T23:56:35.293Z,91.90
2023-02-01T23:59:05.092Z,91.90
